Plessisville, Canada
Current Conditions -  °F | °C
As of 6:00 PM on Friday 31 Oct 2014 (Local Time) from CYQB Reporting Station
Broken Clouds Broken Clouds  
Wind Chill: 36°   Ceiling: 4200
Heat Index: 41°   Visibility: 15mi
Dew Point: 32°   Wind: 8mph
Humidity: 70%   Direction: 60°ENE
Pressure: 30.1"   Gusts: NA
Location:  46.22°N, 71.77°W
Report Text: CYQB 312200Z 06007KT 15SM FEW018 BKN042 BKN055 05/M00 A3010 RMK SC2SC4SC1 SLP194
Loading
Personal Weather Stations






























Interactive Weather Map
Tropical Storm Tracking
New forecast layout! Learn more

10-Day Weather Forecast

Advertisements
Track Severe Weather on mobile